Time;durP1;ratioP1;P1;durP2;ratioP2;P2;SDS_P1;SDS_P2;PMS_P1;PMS_P2;Temp;Humidity;BMP_temperature;BMP_pressure;BME280_temperature;BME280_humidity;BME280_pressure;Samples;Min_cycle;Max_cycle;Signal;HPM_P1;HPM_P2
2020/12/03 00:02:16;;;;;;;17.43;10.03;;;5.30;99.90;;;;;;5095659;28;20568;-63
2020/12/03 00:04:44;;;;;;;12.27;8.50;;;5.30;99.90;;;;;;5095949;28;20172;-64
2020/12/03 00:07:11;;;;;;;12.18;8.30;;;5.30;99.90;;;;;;5095044;28;20250;-64
2020/12/03 00:09:36;;;;;;;14.50;8.65;;;5.20;99.90;;;;;;5095780;28;20171;-64
2020/12/03 00:12:02;;;;;;;12.17;8.60;;;5.10;99.90;;;;;;5095643;28;20191;-64
2020/12/03 00:14:28;;;;;;;14.23;9.70;;;5.20;99.90;;;;;;5095658;28;20663;-64
2020/12/03 00:16:54;;;;;;;13.63;8.87;;;5.30;99.90;;;;;;5095673;28;20372;-64
2020/12/03 00:19:23;;;;;;;15.43;9.47;;;5.30;99.90;;;;;;5095615;28;20173;-64
2020/12/03 00:21:55;;;;;;;12.30;8.00;;;5.10;99.90;;;;;;5095546;28;20486;-64
2020/12/03 00:24:24;;;;;;;12.75;9.20;;;5.20;99.90;;;;;;5096500;28;20159;-64
2020/12/03 00:26:51;;;;;;;12.05;7.90;;;5.10;99.90;;;;;;5096015;28;20184;-64
2020/12/03 00:29:18;;;;;;;12.70;8.18;;;5.30;99.90;;;;;;5095598;28;20554;-64
2020/12/03 00:31:45;;;;;;;12.35;8.45;;;5.30;99.90;;;;;;5095614;28;20289;-64
2020/12/03 00:34:12;;;;;;;14.27;10.65;;;5.30;99.90;;;;;;5095375;28;20167;-64
2020/12/03 00:36:38;;;;;;;14.75;9.65;;;5.20;99.90;;;;;;5095602;28;20171;-64
2020/12/03 00:39:06;;;;;;;13.23;8.88;;;5.10;99.90;;;;;;5095411;28;20171;-64
2020/12/03 00:41:32;;;;;;;14.05;9.68;;;5.20;99.90;;;;;;5095356;28;20215;-64
2020/12/03 00:43:57;;;;;;;13.30;9.30;;;5.30;99.90;;;;;;5095667;28;20218;-64
2020/12/03 00:46:30;;;;;;;14.43;9.20;;;5.30;99.90;;;;;;5095236;28;20497;-64
2020/12/03 00:48:57;;;;;;;12.18;9.02;;;5.40;99.90;;;;;;5095272;28;20221;-63
2020/12/03 00:51:23;;;;;;;13.80;9.18;;;5.10;99.90;;;;;;5095121;28;20195;-64
2020/12/03 00:53:49;;;;;;;12.95;8.90;;;5.20;99.90;;;;;;5094929;28;20167;-64
2020/12/03 00:56:18;;;;;;;12.68;9.45;;;5.10;99.90;;;;;;5094838;28;20250;-64
2020/12/03 00:58:44;;;;;;;10.90;8.40;;;5.10;1.00;;;;;;5094798;28;20175;-64
2020/12/03 01:01:10;;;;;;;11.38;8.20;;;5.20;1.00;;;;;;5094713;28;20295;-64
2020/12/03 01:03:36;;;;;;;15.27;9.82;;;5.30;1.00;;;;;;5094707;28;20175;-64
2020/12/03 01:06:01;;;;;;;11.20;7.67;;;5.30;99.90;;;;;;5094695;28;20176;-64
2020/12/03 01:08:27;;;;;;;12.37;9.13;;;5.30;99.90;;;;;;5094768;28;20190;-64
2020/12/03 01:10:52;;;;;;;11.83;8.60;;;5.50;99.90;;;;;;5094809;28;20559;-64
2020/12/03 01:13:18;;;;;;;12.97;8.70;;;5.50;99.90;;;;;;5094565;28;20195;-64
2020/12/03 01:15:44;;;;;;;12.77;8.80;;;5.40;99.90;;;;;;5094861;28;20639;-64
2020/12/03 01:18:10;;;;;;;14.02;9.20;;;5.30;99.90;;;;;;5094465;28;20175;-64
2020/12/03 01:20:35;;;;;;;12.00;8.50;;;5.20;99.90;;;;;;5094500;28;20217;-64
2020/12/03 01:23:02;;;;;;;11.40;7.67;;;5.30;99.90;;;;;;5094458;28;20198;-64
2020/12/03 01:25:27;;;;;;;12.23;7.95;;;5.20;99.90;;;;;;5094369;28;20539;-64
2020/12/03 01:27:54;;;;;;;13.77;8.93;;;5.00;99.90;;;;;;5094608;28;20167;-64
2020/12/03 01:30:20;;;;;;;13.10;8.30;;;5.10;1.00;;;;;;5094080;28;20664;-64
2020/12/03 01:32:46;;;;;;;13.65;9.15;;;5.20;1.00;;;;;;5094121;28;20199;-64
2020/12/03 01:35:13;;;;;;;10.53;7.30;;;5.40;1.00;;;;;;5094191;28;20262;-64
2020/12/03 01:37:39;;;;;;;10.30;7.20;;;5.30;99.90;;;;;;5093987;28;20175;-64
2020/12/03 01:40:09;;;;;;;10.40;7.70;;;5.20;1.00;;;;;;5094301;28;20176;-64
2020/12/03 01:42:39;;;;;;;11.10;8.80;;;5.10;99.90;;;;;;5094521;28;20244;-64
2020/12/03 01:45:43;;;;;;;11.23;7.82;;;5.10;1.00;;;;;;5094201;28;20172;-64
2020/12/03 01:48:24;;;;;;;10.93;7.90;;;5.10;1.00;;;;;;5093817;28;20171;-64
2020/12/03 01:50:50;;;;;;;11.82;8.70;;;5.10;1.00;;;;;;5093788;28;20231;-64
2020/12/03 01:53:19;;;;;;;13.73;8.90;;;5.10;1.00;;;;;;5094041;28;20282;-64
2020/12/03 01:55:46;;;;;;;10.45;7.85;;;5.10;99.90;;;;;;5093970;28;20383;-64
2020/12/03 01:58:43;;;;;;;13.70;9.27;;;5.20;1.00;;;;;;5093711;28;20535;-64
2020/12/03 02:01:10;;;;;;;13.68;8.65;;;5.20;1.00;;;;;;5085392;28;20219;-64
2020/12/03 02:03:45;;;;;;;13.10;9.25;;;5.20;1.00;;;;;;5093647;28;20171;-64
2020/12/03 02:06:14;;;;;;;12.38;8.85;;;4.90;99.90;;;;;;5093911;28;20163;-63
2020/12/03 02:08:40;;;;;;;12.23;8.52;;;4.90;1.00;;;;;;5093816;28;20168;-64
2020/12/03 02:11:05;;;;;;;12.10;8.27;;;4.90;1.00;;;;;;5093693;28;20201;-64
2020/12/03 02:13:31;;;;;;;12.60;8.50;;;5.20;1.00;;;;;;5093480;28;20562;-64
2020/12/03 02:15:56;;;;;;;14.10;10.00;;;5.10;1.00;;;;;;5093420;28;20171;-64
2020/12/03 02:18:22;;;;;;;17.00;9.73;;;5.20;1.00;;;;;;5093723;28;20167;-64
2020/12/03 02:20:47;;;;;;;18.17;10.40;;;5.20;1.00;;;;;;5093380;28;20749;-63
2020/12/03 02:23:17;;;;;;;13.73;9.27;;;5.20;1.00;;;;;;5093351;28;20179;-64
2020/12/03 02:25:42;;;;;;;12.55;8.60;;;5.00;1.00;;;;;;5093557;28;20579;-65
2020/12/03 02:28:08;;;;;;;11.80;8.53;;;5.10;19.80;;;;;;5093192;28;20171;-65
2020/12/03 02:30:34;;;;;;;12.50;8.07;;;5.10;1.00;;;;;;5092445;28;20228;-65
2020/12/03 02:33:00;;;;;;;15.47;8.73;;;5.10;1.00;;;;;;5093157;28;20199;-65
2020/12/03 02:35:25;;;;;;;14.03;8.73;;;5.00;1.00;;;;;;5093178;28;20891;-65
2020/12/03 02:37:51;;;;;;;13.53;8.53;;;5.10;1.00;;;;;;5093265;28;20414;-65
2020/12/03 02:40:16;;;;;;;14.57;9.77;;;5.10;1.00;;;;;;5093572;28;20258;-65
2020/12/03 02:42:42;;;;;;;11.87;8.33;;;4.90;1.00;;;;;;5093067;28;20225;-65
2020/12/03 02:45:07;;;;;;;13.23;8.90;;;4.90;1.00;;;;;;5093112;28;20179;-65
2020/12/03 02:47:33;;;;;;;14.90;9.43;;;5.00;1.00;;;;;;5093332;28;20171;-65
2020/12/03 02:49:59;;;;;;;13.70;8.30;;;5.10;1.00;;;;;;5093349;28;20171;-65
2020/12/03 02:52:25;;;;;;;10.27;7.90;;;5.00;1.00;;;;;;5092945;28;20783;-65
2020/12/03 02:54:51;;;;;;;13.85;9.30;;;5.00;1.00;;;;;;5093274;28;20171;-65
2020/12/03 02:57:17;;;;;;;15.60;10.15;;;5.10;1.00;;;;;;5093281;28;20586;-65
2020/12/03 02:59:43;;;;;;;12.40;8.80;;;5.20;1.00;;;;;;5093250;28;20593;-65
2020/12/03 03:02:09;;;;;;;13.18;8.13;;;5.20;99.90;;;;;;5092809;28;20245;-65
2020/12/03 03:04:35;;;;;;;14.00;9.33;;;5.20;99.90;;;;;;5092942;28;20259;-65
2020/12/03 03:07:01;;;;;;;13.60;8.80;;;5.20;99.90;;;;;;5092911;28;20234;-65
2020/12/03 03:09:26;;;;;;;12.37;8.83;;;5.10;99.90;;;;;;5092924;28;20178;-65
2020/12/03 03:11:52;;;;;;;14.00;8.33;;;5.00;99.90;;;;;;5092900;28;20958;-65
2020/12/03 03:14:18;;;;;;;13.87;9.10;;;5.20;99.90;;;;;;5093147;28;20175;-65
2020/12/03 03:16:44;;;;;;;14.82;9.50;;;5.10;99.90;;;;;;5092827;28;20838;-65
2020/12/03 03:19:09;;;;;;;13.67;9.90;;;5.10;1.00;;;;;;5093030;28;20195;-65
2020/12/03 03:21:35;;;;;;;13.57;10.30;;;5.30;99.90;;;;;;5092663;28;20659;-65
2020/12/03 03:24:01;;;;;;;13.40;8.73;;;5.30;99.90;;;;;;5093114;28;20247;-65
2020/12/03 03:26:27;;;;;;;14.80;8.93;;;5.20;99.90;;;;;;5092753;28;20400;-62
2020/12/03 03:28:53;;;;;;;18.23;10.80;;;5.20;99.90;;;;;;5092951;28;20167;-64
2020/12/03 03:31:19;;;;;;;16.60;8.77;;;5.30;99.90;;;;;;5092807;28;20477;-65
2020/12/03 03:33:45;;;;;;;16.30;8.90;;;5.40;99.90;;;;;;5092582;28;20253;-65
2020/12/03 03:36:11;;;;;;;14.35;8.50;;;5.40;99.90;;;;;;5092898;28;20170;-65
2020/12/03 03:38:37;;;;;;;13.73;9.50;;;5.30;99.90;;;;;;5092646;28;20164;-65
2020/12/03 03:41:02;;;;;;;14.57;9.10;;;5.50;99.90;;;;;;5092785;28;20616;-65
2020/12/03 03:43:28;;;;;;;12.80;8.63;;;5.50;99.90;;;;;;5096045;28;20213;-64
2020/12/03 03:45:54;;;;;;;13.30;8.53;;;5.40;99.90;;;;;;5096241;28;20413;-65
2020/12/03 03:48:21;;;;;;;14.70;9.63;;;5.40;99.90;;;;;;5096238;28;20228;-65
2020/12/03 03:50:46;;;;;;;15.48;9.38;;;5.30;99.90;;;;;;5096112;28;20196;-65
2020/12/03 03:53:12;;;;;;;13.73;9.10;;;5.20;99.90;;;;;;5096371;28;20529;-65
2020/12/03 03:55:38;;;;;;;16.90;10.57;;;5.10;1.00;;;;;;5096254;28;20171;-65
2020/12/03 03:58:08;;;;;;;12.47;8.03;;;5.20;99.90;;;;;;5096311;28;20196;-65
2020/12/03 04:00:39;;;;;;;12.32;8.30;;;5.20;99.90;;;;;;5095957;28;20473;-65
2020/12/03 04:03:07;;;;;;;11.70;8.07;;;4.90;1.00;;;;;;5096256;28;20163;-65
2020/12/03 04:05:32;;;;;;;13.02;8.45;;;4.90;1.00;;;;;;5095910;28;20163;-64
2020/12/03 04:07:58;;;;;;;14.50;9.50;;;5.10;1.00;;;;;;5095876;28;20186;-65
2020/12/03 04:10:25;;;;;;;16.87;10.00;;;5.10;1.00;;;;;;5096360;28;20179;-65
2020/12/03 04:12:51;;;;;;;13.77;8.43;;;5.10;1.00;;;;;;5095665;28;20197;-65
2020/12/03 04:15:16;;;;;;;11.40;8.53;;;5.00;1.00;;;;;;5095714;28;20234;-64
2020/12/03 04:17:42;;;;;;;15.70;10.80;;;5.00;99.90;;;;;;5095697;28;20167;-65
2020/12/03 04:20:07;;;;;;;13.40;9.40;;;5.20;6.00;;;;;;5095651;28;20599;-65
2020/12/03 04:22:33;;;;;;;14.30;8.93;;;5.00;1.00;;;;;;5095472;28;20559;-65
2020/12/03 04:24:59;;;;;;;13.33;8.20;;;5.10;1.00;;;;;;5095459;28;20222;-65
2020/12/03 04:27:25;;;;;;;12.33;8.93;;;5.00;1.00;;;;;;5095686;28;20398;-65
2020/12/03 04:29:50;;;;;;;14.03;9.50;;;5.00;99.90;;;;;;5095708;28;20647;-65
2020/12/03 04:32:16;;;;;;;9.97;8.20;;;5.20;1.00;;;;;;5095212;28;20199;-64
2020/12/03 04:34:41;;;;;;;12.37;8.30;;;5.10;1.00;;;;;;5095335;28;20168;-65
2020/12/03 04:37:07;;;;;;;14.33;8.40;;;5.20;1.00;;;;;;5095305;28;20160;-64
2020/12/03 04:39:33;;;;;;;18.87;8.70;;;5.20;1.00;;;;;;5095697;28;20167;-65
2020/12/03 04:41:59;;;;;;;11.23;8.87;;;5.10;1.00;;;;;;5095082;28;20191;-65
2020/12/03 04:44:33;;;;;;;10.65;8.55;;;4.80;99.90;;;;;;5095078;28;20246;-65
2020/12/03 04:47:26;;;;;;;12.10;7.45;;;5.00;99.90;;;;;;5095137;28;20167;-65
2020/12/03 04:50:12;;;;;;;13.27;9.95;;;5.00;79.80;;;;;;5095369;28;20726;-65
2020/12/03 04:52:52;;;;;;;12.82;7.90;;;5.10;7.70;;;;;;5094875;28;20207;-65
2020/12/03 04:55:21;;;;;;;13.68;8.70;;;4.90;13.70;;;;;;5094679;28;20348;-65
2020/12/03 04:57:49;;;;;;;14.93;7.72;;;5.10;26.80;;;;;;5095143;28;20657;-65
2020/12/03 05:00:40;;;;;;;15.05;8.88;;;5.20;1.00;;;;;;5095974;28;20176;-65
2020/12/03 05:03:40;;;;;;;12.95;8.73;;;5.10;1.00;;;;;;5096978;28;20176;-65
2020/12/03 05:06:29;;;;;;;13.27;8.00;;;5.20;1.00;;;;;;5078581;28;20237;-65
2020/12/03 05:09:04;;;;;;;14.00;8.85;;;5.10;1.00;;;;;;5094675;28;20159;-65
2020/12/03 05:11:35;;;;;;;17.30;9.50;;;5.00;1.00;;;;;;5094794;28;20719;-65
2020/12/03 05:14:05;;;;;;;12.52;8.52;;;5.00;1.80;;;;;;5094935;28;20246;-65
2020/12/03 05:17:18;;;;;;;18.77;9.43;;;5.10;31.00;;;;;;5095302;28;20650;-65
2020/12/03 05:20:12;;;;;;;15.70;9.98;;;5.10;1.00;;;;;;5084555;28;20179;-65
2020/12/03 05:22:38;;;;;;;14.48;8.52;;;5.10;1.00;;;;;;5094583;28;20210;-63
2020/12/03 05:25:11;;;;;;;15.25;9.32;;;5.10;1.00;;;;;;5094353;28;20175;-65
2020/12/03 05:27:38;;;;;;;12.75;9.00;;;5.10;1.00;;;;;;5094514;28;20164;-65
2020/12/03 05:30:06;;;;;;;13.00;8.40;;;5.00;1.00;;;;;;5094534;28;20167;-65
2020/12/03 05:32:31;;;;;;;13.82;8.40;;;5.20;1.00;;;;;;5093903;28;20646;-65
2020/12/03 05:34:57;;;;;;;12.17;7.83;;;5.00;1.00;;;;;;5094118;28;20175;-64
2020/12/03 05:37:26;;;;;;;15.73;8.67;;;5.00;1.00;;;;;;5094660;28;20233;-65
2020/12/03 05:39:56;;;;;;;11.13;7.05;;;5.10;99.90;;;;;;5094206;28;20180;-64
2020/12/03 05:42:29;;;;;;;13.68;9.30;;;5.10;99.90;;;;;;5094109;28;20191;-65
2020/12/03 05:44:57;;;;;;;9.90;7.22;;;5.20;99.90;;;;;;5093833;28;20174;-65
2020/12/03 05:47:30;;;;;;;13.80;9.18;;;5.20;99.90;;;;;;5093624;28;20589;-65
2020/12/03 05:50:03;;;;;;;12.07;8.93;;;5.30;1.00;;;;;;5093719;28;20164;-65
2020/12/03 05:52:30;;;;;;;13.77;9.55;;;5.10;1.00;;;;;;5093957;28;20202;-65
2020/12/03 05:54:57;;;;;;;10.98;7.47;;;5.20;1.00;;;;;;5093738;28;20163;-64
2020/12/03 05:57:27;;;;;;;14.25;8.75;;;5.10;99.90;;;;;;5093838;28;20171;-64
2020/12/03 05:59:52;;;;;;;16.15;9.35;;;5.20;1.00;;;;;;5094611;28;20172;-65
2020/12/03 06:02:39;;;;;;;13.70;8.57;;;5.30;99.90;;;;;;5093346;28;20286;-65
2020/12/03 06:05:19;;;;;;;12.98;8.15;;;5.20;99.90;;;;;;5093786;28;20148;-65
2020/12/03 06:08:10;;;;;;;14.52;9.00;;;5.10;99.90;;;;;;5093631;28;20159;-65
2020/12/03 06:11:06;;;;;;;12.68;8.35;;;5.20;99.90;;;;;;5093346;28;20745;-65
2020/12/03 06:13:52;;;;;;;13.95;7.90;;;5.10;1.00;;;;;;5088830;28;20302;-65
2020/12/03 06:16:27;;;;;;;15.77;7.88;;;5.20;99.90;;;;;;5093454;28;20226;-65
2020/12/03 06:19:28;;;;;;;11.65;8.15;;;5.20;99.90;;;;;;5093483;28;20163;-65
2020/12/03 06:22:23;;;;;;;12.52;7.55;;;5.20;99.90;;;;;;5085952;28;20203;-65
2020/12/03 06:24:59;;;;;;;14.32;9.10;;;5.10;99.90;;;;;;5087770;28;20312;-63
2020/12/03 06:27:53;;;;;;;16.05;9.13;;;5.00;99.90;;;;;;5093116;28;20228;-65
2020/12/03 06:30:37;;;;;;;17.17;10.20;;;5.00;99.90;;;;;;5093395;28;20528;-65
2020/12/03 06:33:26;;;;;;;12.32;8.07;;;5.10;99.90;;;;;;5092531;28;20273;-65
2020/12/03 06:36:04;;;;;;;15.95;8.45;;;5.10;99.90;;;;;;5093366;28;20152;-59
2020/12/03 06:39:16;;;;;;;14.55;8.30;;;5.10;99.90;;;;;;5091681;28;20159;-65
2020/12/03 06:41:54;;;;;;;13.40;8.75;;;5.10;99.90;;;;;;5092502;28;20184;-63
2020/12/03 06:44:36;;;;;;;12.15;8.13;;;5.20;99.90;;;;;;5092946;28;20163;-64
2020/12/03 06:47:29;;;;;;;11.25;6.32;;;5.30;99.90;;;;;;5093364;28;20615;-65
2020/12/03 06:50:22;;;;;;;13.02;8.32;;;5.30;99.90;;;;;;5092984;28;20220;-65
2020/12/03 06:52:59;;;;;;;9.85;6.80;;;5.10;99.90;;;;;;5092904;28;20230;-64
2020/12/03 06:55:58;;;;;;;11.57;8.20;;;4.90;99.90;;;;;;5092625;28;20603;-65
2020/12/03 06:58:45;;;;;;;13.98;7.50;;;5.10;99.90;;;;;;5092772;28;20608;-65
2020/12/03 07:01:47;;;;;;;14.30;7.88;;;5.30;99.90;;;;;;5092526;28;20207;-61
2020/12/03 07:05:03;;;;;;;11.30;7.18;;;5.20;99.90;;;;;;5092746;28;20183;-65
2020/12/03 07:07:48;;;;;;;12.32;8.02;;;5.30;99.90;;;;;;5092530;28;20235;-65
2020/12/03 07:10:32;;;;;;;10.50;7.05;;;5.30;99.90;;;;;;5093364;28;20602;-65
2020/12/03 07:13:20;;;;;;;12.35;8.65;;;5.30;99.90;;;;;;5092677;28;20191;-65
2020/12/03 07:16:14;;;;;;;11.13;8.55;;;5.20;99.90;;;;;;5071889;28;20540;-65
2020/12/03 07:19:17;;;;;;;12.80;8.10;;;5.30;99.90;;;;;;5096679;28;20196;-65
2020/12/03 07:22:10;;;;;;;12.18;8.48;;;5.20;99.90;;;;;;5096091;28;20282;-65
2020/12/03 07:24:37;;;;;;;11.07;7.25;;;5.40;99.90;;;;;;5096542;28;20652;-65
2020/12/03 07:27:09;;;;;;;12.48;8.10;;;5.40;99.90;;;;;;5096223;28;20513;-63
2020/12/03 07:29:52;;;;;;;9.85;6.50;;;5.20;99.90;;;;;;5095872;28;20171;-65
2020/12/03 07:32:39;;;;;;;13.93;8.75;;;5.30;99.90;;;;;;5095984;28;20207;-64
2020/12/03 07:35:27;;;;;;;12.15;8.98;;;5.30;99.90;;;;;;5096426;28;20151;-64
2020/12/03 07:38:30;;;;;;;11.77;7.50;;;5.30;99.90;;;;;;5096389;28;20155;-66
2020/12/03 07:40:56;;;;;;;10.98;7.47;;;5.30;99.90;;;;;;5095875;28;20194;-64
2020/12/03 07:43:32;;;;;;;13.20;8.43;;;5.50;99.90;;;;;;5096028;28;20182;-64
2020/12/03 07:45:59;;;;;;;11.70;7.32;;;5.10;99.90;;;;;;5096095;28;20190;-64
2020/12/03 07:48:44;;;;;;;12.63;8.15;;;5.20;99.90;;;;;;5096201;28;20171;-64
2020/12/03 07:51:13;;;;;;;22.60;8.70;;;5.40;99.90;;;;;;5095633;28;20236;-64
2020/12/03 07:53:39;;;;;;;11.70;8.00;;;5.40;99.90;;;;;;5095532;28;20198;-59
2020/12/03 07:56:31;;;;;;;12.10;7.35;;;5.40;99.90;;;;;;5095859;28;20178;-64
2020/12/03 07:59:22;;;;;;;11.95;7.45;;;5.50;99.90;;;;;;5095995;28;20152;-64
2020/12/03 08:01:48;;;;;;;8.57;5.95;;;5.50;99.90;;;;;;5095347;28;20662;-64
2020/12/03 08:04:36;;;;;;;11.47;8.40;;;5.50;99.90;;;;;;5095214;28;20171;-64
2020/12/03 08:07:34;;;;;;;11.10;7.38;;;5.60;99.90;;;;;;5095594;28;20368;-63
2020/12/03 08:09:59;;;;;;;9.75;6.55;;;5.70;99.90;;;;;;5086363;28;20206;-65
2020/12/03 08:12:28;;;;;;;10.77;7.90;;;5.60;99.90;;;;;;5095490;28;20671;-64
2020/12/03 08:14:55;;;;;;;11.32;7.00;;;5.60;99.90;;;;;;5095515;28;20707;-64
2020/12/03 08:17:21;;;;;;;11.35;8.23;;;5.50;99.90;;;;;;5095253;28;20167;-64
2020/12/03 08:19:54;;;;;;;10.87;7.20;;;5.50;99.90;;;;;;5095405;28;20170;-63
2020/12/03 08:22:35;;;;;;;10.65;7.65;;;5.50;99.90;;;;;;5095189;28;20184;-64
2020/12/03 08:25:25;;;;;;;14.85;7.85;;;5.50;99.90;;;;;;5095314;28;20167;-64
2020/12/03 08:28:01;;;;;;;12.10;7.60;;;5.50;99.90;;;;;;5094655;28;20187;-63
2020/12/03 08:30:51;;;;;;;10.02;7.32;;;5.60;99.90;;;;;;5094398;28;20158;-64
2020/12/03 08:33:34;;;;;;;10.48;7.47;;;5.50;99.90;;;;;;5095218;28;20214;-64
2020/12/03 08:36:02;;;;;;;10.35;7.53;;;5.60;99.90;;;;;;5095152;28;20148;-64
2020/12/03 08:38:35;;;;;;;11.07;7.53;;;5.60;99.90;;;;;;5095070;28;20221;-64
2020/12/03 08:41:05;;;;;;;12.95;8.77;;;5.60;99.90;;;;;;5094856;28;20587;-65
2020/12/03 08:43:33;;;;;;;10.40;8.32;;;5.60;99.90;;;;;;5095583;28;20159;-64
2020/12/03 08:46:03;;;;;;;13.88;8.40;;;5.70;99.90;;;;;;5095172;28;20592;-63
2020/12/03 08:48:32;;;;;;;10.52;7.38;;;5.70;99.90;;;;;;5094706;28;20658;-64
2020/12/03 08:51:05;;;;;;;13.18;8.02;;;5.60;99.90;;;;;;5094716;28;20236;-64
2020/12/03 08:53:32;;;;;;;14.98;7.85;;;5.60;99.90;;;;;;5094698;28;20195;-65
2020/12/03 08:56:18;;;;;;;11.75;7.80;;;5.50;99.90;;;;;;5094339;28;20622;-63
2020/12/03 08:58:58;;;;;;;11.13;8.05;;;5.50;99.90;;;;;;5086748;28;20609;-65
2020/12/03 09:01:28;;;;;;;9.95;7.22;;;5.50;99.90;;;;;;5094164;28;20199;-64
2020/12/03 09:03:57;;;;;;;15.02;8.10;;;5.50;99.90;;;;;;5094204;28;20667;-64
2020/12/03 09:06:28;;;;;;;9.77;7.75;;;5.50;99.90;;;;;;5094481;28;20183;-65
2020/12/03 09:08:54;;;;;;;12.00;8.27;;;5.60;99.90;;;;;;5094474;28;20152;-65
2020/12/03 09:11:21;;;;;;;13.32;7.97;;;5.70;99.90;;;;;;5094339;28;20199;-64
2020/12/03 09:13:52;;;;;;;12.20;7.95;;;5.60;99.90;;;;;;5094201;28;20294;-63
2020/12/03 09:16:21;;;;;;;10.75;7.45;;;5.50;99.90;;;;;;5094448;28;20167;-62
2020/12/03 09:18:47;;;;;;;8.80;7.07;;;5.60;99.90;;;;;;5094197;28;20215;-63
2020/12/03 09:21:14;;;;;;;10.77;7.83;;;5.70;99.90;;;;;;5093980;28;20202;-64
2020/12/03 09:23:46;;;;;;;11.30;7.18;;;5.70;99.90;;;;;;5094287;28;20258;-65
2020/12/03 09:26:19;;;;;;;14.27;9.20;;;5.80;99.90;;;;;;5094461;28;20159;-65
2020/12/03 09:28:46;;;;;;;11.00;7.72;;;5.70;99.90;;;;;;5094165;28;20163;-64
2020/12/03 09:31:12;;;;;;;12.40;7.43;;;5.80;99.90;;;;;;5094058;28;20200;-64
2020/12/03 09:33:42;;;;;;;11.45;8.50;;;5.70;99.90;;;;;;5093889;28;20233;-65
2020/12/03 09:36:07;;;;;;;11.63;7.78;;;5.60;99.90;;;;;;5093587;28;20239;-64
2020/12/03 09:38:33;;;;;;;12.97;8.33;;;5.70;99.90;;;;;;5093948;28;20171;-65
2020/12/03 09:40:59;;;;;;;11.50;8.57;;;5.70;99.90;;;;;;5093237;28;20320;-64
2020/12/03 09:43:26;;;;;;;11.30;7.77;;;5.60;99.90;;;;;;5093490;28;20210;-64
2020/12/03 09:45:56;;;;;;;10.98;8.00;;;5.70;99.90;;;;;;5093796;28;20175;-65
2020/12/03 09:48:25;;;;;;;13.57;8.30;;;5.80;99.90;;;;;;5093743;28;20166;-64
2020/12/03 09:50:51;;;;;;;10.07;6.97;;;5.90;99.90;;;;;;5093529;28;20627;-64
2020/12/03 09:53:19;;;;;;;9.80;6.73;;;5.90;99.90;;;;;;5093141;28;20202;-64
2020/12/03 09:55:45;;;;;;;10.73;8.02;;;5.80;99.90;;;;;;5093362;28;20376;-65
2020/12/03 09:58:11;;;;;;;11.40;7.07;;;5.90;99.90;;;;;;5093698;28;20270;-63
2020/12/03 10:00:39;;;;;;;13.37;7.67;;;5.90;99.90;;;;;;5093070;28;20195;-65
2020/12/03 10:03:36;;;;;;;12.60;8.15;;;6.00;99.90;;;;;;5093076;28;20654;-64
2020/12/03 10:06:03;;;;;;;11.38;6.90;;;6.00;99.90;;;;;;5093341;28;20170;-64
2020/12/03 10:08:47;;;;;;;11.48;7.57;;;6.00;99.90;;;;;;5093190;28;20172;-64
2020/12/03 10:11:25;;;;;;;13.65;7.78;;;5.90;99.90;;;;;;5093527;28;20223;-64
2020/12/03 10:14:28;;;;;;;11.43;7.60;;;5.90;99.90;;;;;;5093365;28;20574;-64
2020/12/03 10:17:04;;;;;;;14.45;9.60;;;5.90;99.90;;;;;;5093104;28;20628;-64
2020/12/03 10:19:34;;;;;;;12.80;9.30;;;6.10;99.90;;;;;;5093208;28;20152;-64
2020/12/03 10:22:03;;;;;;;13.48;7.60;;;6.20;99.90;;;;;;5093220;28;20602;-64
2020/12/03 10:24:53;;;;;;;12.07;7.85;;;6.30;99.90;;;;;;5093077;28;20183;-65
2020/12/03 10:27:30;;;;;;;13.50;8.70;;;6.30;99.90;;;;;;5093067;28;20680;-64
2020/12/03 10:30:07;;;;;;;13.30;8.40;;;6.20;99.90;;;;;;5092900;28;20170;-64
2020/12/03 10:32:36;;;;;;;12.30;8.07;;;6.20;99.90;;;;;;5092680;28;20694;-64
2020/12/03 10:35:04;;;;;;;11.70;8.50;;;6.00;99.90;;;;;;5092857;28;20163;-65
2020/12/03 10:37:52;;;;;;;15.98;9.60;;;6.00;99.90;;;;;;5093015;28;20175;-65
2020/12/03 10:40:19;;;;;;;14.60;9.20;;;6.00;99.90;;;;;;5092519;28;20159;-65
2020/12/03 10:42:57;;;;;;;11.77;8.57;;;5.90;99.90;;;;;;5093172;28;20175;-64
2020/12/03 10:45:29;;;;;;;13.25;9.00;;;6.00;99.90;;;;;;5092740;28;20155;-64
2020/12/03 10:48:06;;;;;;;18.08;9.82;;;6.10;99.90;;;;;;5093362;28;20156;-64
2020/12/03 10:51:04;;;;;;;17.15;9.13;;;6.00;99.90;;;;;;5093741;28;20159;-60
2020/12/03 10:53:31;;;;;;;17.95;9.25;;;5.80;99.90;;;;;;5087442;28;20203;-65
2020/12/03 10:56:05;;;;;;;14.27;9.70;;;6.00;99.90;;;;;;5097666;28;20217;-65
2020/12/03 10:58:47;;;;;;;17.35;8.98;;;6.10;99.90;;;;;;5097147;28;20178;-64
2020/12/03 11:01:27;;;;;;;12.27;8.73;;;6.20;99.90;;;;;;5096987;28;20220;-63
2020/12/03 11:03:54;;;;;;;17.02;8.98;;;6.00;99.90;;;;;;5096929;28;20160;-65
2020/12/03 11:06:27;;;;;;;12.57;8.15;;;6.40;99.90;;;;;;5097504;28;20175;-64
2020/12/03 11:08:54;;;;;;;14.55;8.48;;;6.50;99.90;;;;;;5097034;28;20636;-64
2020/12/03 11:11:21;;;;;;;15.18;8.88;;;6.40;99.90;;;;;;5097012;28;20616;-63
2020/12/03 11:13:46;;;;;;;12.60;8.77;;;6.50;99.90;;;;;;5096394;28;20187;-63
2020/12/03 11:16:17;;;;;;;11.80;7.47;;;6.40;99.90;;;;;;5096455;28;20587;-64
2020/12/03 11:18:48;;;;;;;12.55;8.35;;;6.30;99.90;;;;;;5097123;28;20386;-64
2020/12/03 11:21:22;;;;;;;14.10;7.53;;;6.10;99.90;;;;;;5098179;28;20668;-66
2020/12/03 11:23:58;;;;;;;12.85;9.05;;;6.20;99.90;;;;;;5097826;28;20167;-65
2020/12/03 11:26:28;;;;;;;12.48;8.07;;;6.20;99.90;;;;;;5097464;28;20160;-64
2020/12/03 11:28:54;;;;;;;14.60;8.98;;;6.20;99.90;;;;;;5097520;28;20175;-64
2020/12/03 11:31:31;;;;;;;12.90;8.77;;;6.20;99.90;;;;;;5096309;28;20194;-65
2020/12/03 11:33:57;;;;;;;13.80;8.18;;;6.30;99.90;;;;;;5095935;28;20416;-63
2020/12/03 11:36:30;;;;;;;9.70;7.03;;;6.30;99.90;;;;;;5096359;28;20636;-64
2020/12/03 11:38:57;;;;;;;11.25;7.65;;;6.20;99.90;;;;;;5095962;28;20569;-66
2020/12/03 11:49:41;;;;;;;13.80;8.50;;;6.20;99.90;;;;;;5041275;28;20595;-64
2020/12/03 11:52:17;;;;;;;14.70;8.90;;;6.20;99.90;;;;;;5095878;28;20199;-64
2020/12/03 11:54:46;;;;;;;11.20;8.10;;;6.20;99.90;;;;;;5095475;28;20248;-64
2020/12/03 11:57:21;;;;;;;15.63;7.70;;;6.40;99.90;;;;;;5095371;28;20167;-64
2020/12/03 11:59:46;;;;;;;11.18;8.13;;;6.30;99.90;;;;;;5095731;28;20162;-66
2020/12/03 12:02:13;;;;;;;11.00;7.80;;;6.20;99.90;;;;;;5094996;28;20218;-60
2020/12/03 12:07:52;;;;;;;12.32;7.80;;;6.20;99.90;;;;;;5061556;28;20666;-66
2020/12/03 12:10:25;;;;;;;13.52;8.40;;;6.20;99.90;;;;;;5095743;28;20184;-63
2020/12/03 12:12:51;;;;;;;14.35;8.60;;;6.30;99.90;;;;;;5095755;28;20215;-66
2020/12/03 12:15:16;;;;;;;9.50;7.00;;;6.30;99.90;;;;;;5094053;28;20229;-65
2020/12/03 12:17:42;;;;;;;16.23;9.20;;;6.30;99.90;;;;;;5095195;28;20163;-65
2020/12/03 12:20:08;;;;;;;17.03;11.50;;;6.10;99.90;;;;;;5093452;28;20171;-64
2020/12/03 12:22:34;;;;;;;15.63;8.55;;;6.20;99.90;;;;;;5094835;28;20200;-65
2020/12/03 12:25:00;;;;;;;12.70;8.40;;;6.40;99.90;;;;;;5094159;28;20220;-66
2020/12/03 12:27:25;;;;;;;15.53;6.87;;;6.20;99.90;;;;;;5094759;28;20171;-65
2020/12/03 12:29:51;;;;;;;9.33;6.40;;;6.10;99.90;;;;;;5094353;28;20581;-63
2020/12/03 12:32:17;;;;;;;11.25;7.05;;;6.30;99.90;;;;;;5094494;28;20237;-64
2020/12/03 12:34:43;;;;;;;11.87;7.00;;;6.40;99.90;;;;;;5094561;28;20190;-65
2020/12/03 12:37:09;;;;;;;14.40;7.90;;;6.50;99.90;;;;;;5094323;28;20675;-64
2020/12/03 12:39:35;;;;;;;12.00;7.32;;;6.50;99.90;;;;;;5095368;28;20172;-64
2020/12/03 12:42:05;;;;;;;12.20;7.33;;;6.50;99.90;;;;;;5094905;28;20204;-63
2020/12/03 12:44:31;;;;;;;11.30;7.32;;;6.50;99.90;;;;;;5095171;28;20167;-62
2020/12/03 12:46:58;;;;;;;13.40;8.05;;;6.40;99.90;;;;;;5095301;28;20236;-64
2020/12/03 12:49:24;;;;;;;11.10;7.45;;;6.40;99.90;;;;;;5094271;28;20632;-64
2020/12/03 12:51:51;;;;;;;9.90;6.25;;;6.50;99.90;;;;;;5094505;28;20192;-64
2020/12/03 12:54:18;;;;;;;10.75;7.30;;;6.60;64.60;;;;;;5094579;28;20174;-64
2020/12/03 12:56:46;;;;;;;9.38;6.80;;;6.60;99.90;;;;;;5094434;28;20179;-64
2020/12/03 12:59:13;;;;;;;8.88;6.35;;;6.70;99.90;;;;;;5095153;28;20195;-64
2020/12/03 13:01:50;;;;;;;9.13;6.70;;;6.70;63.10;;;;;;5094240;28;20281;-62
2020/12/03 13:04:17;;;;;;;7.72;5.82;;;6.60;64.40;;;;;;5094464;28;20209;-64
2020/12/03 13:06:44;;;;;;;10.82;7.20;;;6.60;76.30;;;;;;5094561;28;20574;-61
2020/12/03 13:09:10;;;;;;;10.00;7.65;;;6.60;99.90;;;;;;5094553;28;20217;-65
2020/12/03 13:11:37;;;;;;;11.65;6.95;;;6.60;96.20;;;;;;5094221;28;20186;-65
2020/12/03 13:14:06;;;;;;;10.77;7.28;;;6.60;79.10;;;;;;5093958;28;20225;-64
2020/12/03 13:16:36;;;;;;;9.60;6.90;;;6.50;52.00;;;;;;5094214;28;20168;-65
2020/12/03 13:19:04;;;;;;;14.50;8.90;;;6.50;99.90;;;;;;5094684;28;20224;-64
2020/12/03 13:21:31;;;;;;;11.40;7.50;;;6.60;99.90;;;;;;5094042;28;20309;-64
2020/12/03 13:24:01;;;;;;;11.55;7.47;;;6.50;99.90;;;;;;5094055;28;20179;-62
2020/12/03 13:26:27;;;;;;;12.00;7.55;;;6.60;57.50;;;;;;5095437;28;20572;-64
2020/12/03 13:28:53;;;;;;;9.85;7.05;;;6.60;85.40;;;;;;5094669;28;20674;-65